sensor_id;sensor_type;location;lat;lon;timestamp;pressure;altitude;pressure_sealevel;temperature;humidity
31595;BME280;18200;48.726;8.892;2023-03-21T00:00:14;96970.28;;;24.25;32.12
31595;BME280;18200;48.726;8.892;2023-03-21T00:04:15;96964.31;;;24.27;31.95
31595;BME280;18200;48.726;8.892;2023-03-21T00:08:16;96970.47;;;24.43;31.50
31595;BME280;18200;48.726;8.892;2023-03-21T00:12:17;96959.47;;;24.43;31.72
31595;BME280;18200;48.726;8.892;2023-03-21T00:16:20;96961.41;;;23.80;32.30
31595;BME280;18200;48.726;8.892;2023-03-21T00:20:20;96957.69;;;23.99;32.23
31595;BME280;18200;48.726;8.892;2023-03-21T00:24:22;96959.81;;;23.54;33.29
31595;BME280;18200;48.726;8.892;2023-03-21T00:28:23;96955.41;;;23.44;33.21
31595;BME280;18200;48.726;8.892;2023-03-21T00:32:23;96946.31;;;23.47;33.31
31595;BME280;18200;48.726;8.892;2023-03-21T00:36:24;96944.28;;;23.76;33.66
31595;BME280;18200;48.726;8.892;2023-03-21T00:40:25;96937.28;;;24.00;33.00
31595;BME280;18200;48.726;8.892;2023-03-21T00:44:25;96934.44;;;24.04;32.69
31595;BME280;18200;48.726;8.892;2023-03-21T00:48:28;96933.88;;;22.53;34.93
31595;BME280;18200;48.726;8.892;2023-03-21T00:52:29;96929.03;;;23.05;34.41
31595;BME280;18200;48.726;8.892;2023-03-21T00:56:29;96916.59;;;23.58;33.76
31595;BME280;18200;48.726;8.892;2023-03-21T01:00:30;96916.94;;;23.72;32.93
31595;BME280;18200;48.726;8.892;2023-03-21T01:04:32;96911.81;;;23.87;32.74
31595;BME280;18200;48.726;8.892;2023-03-21T01:08:41;96905.03;;;24.04;32.79
31595;BME280;18200;48.726;8.892;2023-03-21T01:12:42;96910.06;;;24.18;32.53
31595;BME280;18200;48.726;8.892;2023-03-21T01:16:43;96903.75;;;23.42;33.37
31595;BME280;18200;48.726;8.892;2023-03-21T01:20:45;96909.78;;;22.92;34.13
31595;BME280;18200;48.726;8.892;2023-03-21T01:24:45;96903.94;;;23.35;33.39
31595;BME280;18200;48.726;8.892;2023-03-21T01:28:46;96905.66;;;23.29;34.15
31595;BME280;18200;48.726;8.892;2023-03-21T01:32:46;96900.03;;;23.61;33.89
31595;BME280;18200;48.726;8.892;2023-03-21T01:36:47;96907.19;;;23.30;33.56
31595;BME280;18200;48.726;8.892;2023-03-21T01:40:52;96909.72;;;23.66;33.54
31595;BME280;18200;48.726;8.892;2023-03-21T01:45:03;96905.38;;;23.40;33.48
31595;BME280;18200;48.726;8.892;2023-03-21T01:49:37;96899.13;;;23.10;33.86
31595;BME280;18200;48.726;8.892;2023-03-21T01:53:48;96899.28;;;22.91;34.72
31595;BME280;18200;48.726;8.892;2023-03-21T01:57:50;96896.25;;;23.01;34.74
31595;BME280;18200;48.726;8.892;2023-03-21T02:01:56;96891.03;;;23.48;33.92
31595;BME280;18200;48.726;8.892;2023-03-21T02:06:06;96896.66;;;23.70;33.52
31595;BME280;18200;48.726;8.892;2023-03-21T02:10:13;96888.53;;;22.96;34.25
31595;BME280;18200;48.726;8.892;2023-03-21T02:14:19;96894.44;;;23.24;34.01
31595;BME280;18200;48.726;8.892;2023-03-21T02:18:59;96880.28;;;23.12;34.08
31595;BME280;18200;48.726;8.892;2023-03-21T02:23:40;96877.66;;;23.22;34.33
31595;BME280;18200;48.726;8.892;2023-03-21T02:27:58;96872.84;;;23.67;33.41
31595;BME280;18200;48.726;8.892;2023-03-21T02:41:07;96870.25;;;22.93;33.91
31595;BME280;18200;48.726;8.892;2023-03-21T02:45:20;96866.81;;;22.89;33.70
31595;BME280;18200;48.726;8.892;2023-03-21T02:49:34;96861.50;;;23.40;33.56
31595;BME280;18200;48.726;8.892;2023-03-21T02:53:45;96871.31;;;23.25;33.49
31595;BME280;18200;48.726;8.892;2023-03-21T02:57:48;96867.31;;;23.42;32.92
31595;BME280;18200;48.726;8.892;2023-03-21T03:01:51;96870.72;;;23.46;32.82
31595;BME280;18200;48.726;8.892;2023-03-21T03:05:56;96867.00;;;23.40;33.32
31595;BME280;18200;48.726;8.892;2023-03-21T03:10:32;96864.50;;;23.17;33.58
31595;BME280;18200;48.726;8.892;2023-03-21T03:14:46;96854.41;;;23.26;33.72
31595;BME280;18200;48.726;8.892;2023-03-21T03:18:54;96863.09;;;22.51;35.17
31595;BME280;18200;48.726;8.892;2023-03-21T03:27:17;96853.16;;;22.12;35.33
31595;BME280;18200;48.726;8.892;2023-03-21T03:31:26;96849.97;;;22.30;34.95
31595;BME280;18200;48.726;8.892;2023-03-21T03:35:32;96847.25;;;22.14;35.25
31595;BME280;18200;48.726;8.892;2023-03-21T03:39:37;96844.34;;;21.89;35.63
31595;BME280;18200;48.726;8.892;2023-03-21T03:43:43;96855.44;;;22.30;35.13
31595;BME280;18200;48.726;8.892;2023-03-21T03:47:51;96844.81;;;22.32;34.89
31595;BME280;18200;48.726;8.892;2023-03-21T03:52:03;96855.56;;;21.75;35.94
31595;BME280;18200;48.726;8.892;2023-03-21T03:56:17;96839.03;;;22.14;34.91
31595;BME280;18200;48.726;8.892;2023-03-21T04:00:19;96839.72;;;22.18;34.94
31595;BME280;18200;48.726;8.892;2023-03-21T04:04:22;96840.09;;;22.65;34.70
31595;BME280;18200;48.726;8.892;2023-03-21T04:08:27;96840.09;;;22.65;34.17
31595;BME280;18200;48.726;8.892;2023-03-21T04:12:30;96847.72;;;22.41;34.36
31595;BME280;18200;48.726;8.892;2023-03-21T04:16:50;96842.38;;;22.66;34.27
31595;BME280;18200;48.726;8.892;2023-03-21T04:20:51;96842.59;;;22.59;34.39
31595;BME280;18200;48.726;8.892;2023-03-21T04:24:51;96836.06;;;22.53;33.67
31595;BME280;18200;48.726;8.892;2023-03-21T04:28:52;96829.91;;;22.65;33.66
31595;BME280;18200;48.726;8.892;2023-03-21T04:33:11;96829.56;;;22.47;34.19
31595;BME280;18200;48.726;8.892;2023-03-21T04:37:17;96831.13;;;22.48;33.97
31595;BME280;18200;48.726;8.892;2023-03-21T04:41:19;96830.25;;;22.51;34.05
31595;BME280;18200;48.726;8.892;2023-03-21T04:45:21;96831.53;;;22.02;34.92
31595;BME280;18200;48.726;8.892;2023-03-21T04:49:22;96832.72;;;21.85;34.56
31595;BME280;18200;48.726;8.892;2023-03-21T04:53:22;96833.63;;;21.42;35.53
31595;BME280;18200;48.726;8.892;2023-03-21T04:57:23;96837.44;;;21.64;35.20
31595;BME280;18200;48.726;8.892;2023-03-21T05:01:23;96842.09;;;21.84;34.66
31595;BME280;18200;48.726;8.892;2023-03-21T05:05:25;96839.34;;;21.68;34.23
31595;BME280;18200;48.726;8.892;2023-03-21T05:09:25;96844.03;;;21.31;34.21
31595;BME280;18200;48.726;8.892;2023-03-21T05:13:27;96842.13;;;21.48;35.20
31595;BME280;18200;48.726;8.892;2023-03-21T05:17:27;96843.03;;;21.06;34.99
31595;BME280;18200;48.726;8.892;2023-03-21T05:21:31;96842.34;;;20.98;34.50
31595;BME280;18200;48.726;8.892;2023-03-21T05:25:44;96832.97;;;20.13;36.27
31595;BME280;18200;48.726;8.892;2023-03-21T05:30:08;96837.91;;;20.45;35.68
31595;BME280;18200;48.726;8.892;2023-03-21T05:34:11;96842.28;;;20.62;35.75
31595;BME280;18200;48.726;8.892;2023-03-21T05:38:12;96847.22;;;20.48;35.65
31595;BME280;18200;48.726;8.892;2023-03-21T05:42:22;96846.19;;;20.81;35.74
31595;BME280;18200;48.726;8.892;2023-03-21T05:46:23;96846.63;;;20.99;35.35
31595;BME280;18200;48.726;8.892;2023-03-21T05:50:24;96849.41;;;20.96;34.30
31595;BME280;18200;48.726;8.892;2023-03-21T05:54:38;96846.34;;;20.94;34.42
31595;BME280;18200;48.726;8.892;2023-03-21T05:58:39;96847.81;;;20.98;34.68
31595;BME280;18200;48.726;8.892;2023-03-21T06:02:39;96851.25;;;20.17;36.46
31595;BME280;18200;48.726;8.892;2023-03-21T06:06:45;96851.59;;;20.19;35.59
31595;BME280;18200;48.726;8.892;2023-03-21T06:10:47;96860.66;;;19.32;37.16
31595;BME280;18200;48.726;8.892;2023-03-21T06:14:47;96850.56;;;20.36;35.86
31595;BME280;18200;48.726;8.892;2023-03-21T06:19:01;96849.44;;;20.76;35.16
31595;BME280;18200;48.726;8.892;2023-03-21T06:23:27;96844.88;;;20.27;35.44
31595;BME280;18200;48.726;8.892;2023-03-21T06:27:28;96843.53;;;19.88;36.38
31595;BME280;18200;48.726;8.892;2023-03-21T06:31:29;96837.50;;;20.24;35.50
31595;BME280;18200;48.726;8.892;2023-03-21T06:35:35;96840.41;;;20.36;35.69
31595;BME280;18200;48.726;8.892;2023-03-21T06:39:36;96838.91;;;20.32;35.87
31595;BME280;18200;48.726;8.892;2023-03-21T06:43:36;96842.84;;;20.31;35.83
31595;BME280;18200;48.726;8.892;2023-03-21T06:47:36;96842.19;;;20.66;35.77
31595;BME280;18200;48.726;8.892;2023-03-21T06:51:41;96841.25;;;21.15;34.94
31595;BME280;18200;48.726;8.892;2023-03-21T06:55:49;96840.09;;;20.54;35.41
31595;BME280;18200;48.726;8.892;2023-03-21T06:59:50;96830.31;;;21.15;34.52
31595;BME280;18200;48.726;8.892;2023-03-21T07:03:53;96837.66;;;20.99;34.95
31595;BME280;18200;48.726;8.892;2023-03-21T07:07:57;96841.25;;;21.15;34.56
31595;BME280;18200;48.726;8.892;2023-03-21T07:12:02;96829.75;;;20.65;35.95
31595;BME280;18200;48.726;8.892;2023-03-21T07:16:15;96829.16;;;21.16;35.43
31595;BME280;18200;48.726;8.892;2023-03-21T07:20:16;96833.00;;;21.19;34.50
31595;BME280;18200;48.726;8.892;2023-03-21T07:24:16;96835.44;;;22.01;33.48
31595;BME280;18200;48.726;8.892;2023-03-21T07:28:17;96833.31;;;22.53;32.93
31595;BME280;18200;48.726;8.892;2023-03-21T07:32:18;96832.41;;;22.60;32.59
31595;BME280;18200;48.726;8.892;2023-03-21T07:36:18;96832.56;;;22.97;31.66
31595;BME280;18200;48.726;8.892;2023-03-21T07:40:20;96828.09;;;23.29;31.26
31595;BME280;18200;48.726;8.892;2023-03-21T07:44:22;96831.31;;;22.98;32.01
31595;BME280;18200;48.726;8.892;2023-03-21T07:48:28;96825.59;;;22.80;32.32
31595;BME280;18200;48.726;8.892;2023-03-21T07:52:30;96824.41;;;23.35;31.63
31595;BME280;18200;48.726;8.892;2023-03-21T07:56:32;96824.88;;;23.59;31.31
31595;BME280;18200;48.726;8.892;2023-03-21T08:00:32;96820.59;;;24.08;30.67
31595;BME280;18200;48.726;8.892;2023-03-21T08:04:33;96829.91;;;24.23;30.46
31595;BME280;18200;48.726;8.892;2023-03-21T08:08:34;96826.34;;;24.70;29.81
31595;BME280;18200;48.726;8.892;2023-03-21T08:12:34;96824.56;;;24.41;29.85
31595;BME280;18200;48.726;8.892;2023-03-21T08:16:35;96828.06;;;25.41;28.45
31595;BME280;18200;48.726;8.892;2023-03-21T08:20:35;96820.09;;;25.34;28.98
31595;BME280;18200;48.726;8.892;2023-03-21T08:24:36;96818.63;;;25.42;27.81
31595;BME280;18200;48.726;8.892;2023-03-21T08:28:36;96819.25;;;25.46;27.64
31595;BME280;18200;48.726;8.892;2023-03-21T08:32:39;96812.78;;;26.20;25.24
31595;BME280;18200;48.726;8.892;2023-03-21T08:36:39;96809.53;;;25.63;26.65
31595;BME280;18200;48.726;8.892;2023-03-21T08:40:40;96807.63;;;26.49;26.07
31595;BME280;18200;48.726;8.892;2023-03-21T08:44:40;96799.97;;;26.71;24.73
31595;BME280;18200;48.726;8.892;2023-03-21T08:48:41;96795.25;;;26.53;24.97
31595;BME280;18200;48.726;8.892;2023-03-21T08:52:41;96801.03;;;26.46;25.32
31595;BME280;18200;48.726;8.892;2023-03-21T08:56:42;96794.78;;;27.00;24.70
31595;BME280;18200;48.726;8.892;2023-03-21T09:00:42;96792.00;;;26.91;25.20
31595;BME280;18200;48.726;8.892;2023-03-21T09:04:43;96797.19;;;27.07;24.52
31595;BME280;18200;48.726;8.892;2023-03-21T09:08:43;96793.22;;;26.63;25.33
31595;BME280;18200;48.726;8.892;2023-03-21T09:12:45;96787.13;;;26.86;24.75
31595;BME280;18200;48.726;8.892;2023-03-21T09:16:46;96790.81;;;26.74;25.25
31595;BME280;18200;48.726;8.892;2023-03-21T09:20:47;96785.03;;;27.74;24.40
31595;BME280;18200;48.726;8.892;2023-03-21T09:24:48;96792.94;;;27.90;24.27
31595;BME280;18200;48.726;8.892;2023-03-21T09:28:49;96785.19;;;27.28;24.80
31595;BME280;18200;48.726;8.892;2023-03-21T09:32:49;96787.34;;;27.24;24.63
31595;BME280;18200;48.726;8.892;2023-03-21T09:36:52;96789.19;;;27.18;24.25
31595;BME280;18200;48.726;8.892;2023-03-21T09:41:03;96790.44;;;27.68;23.88
31595;BME280;18200;48.726;8.892;2023-03-21T09:53:53;96787.22;;;28.26;23.20
31595;BME280;18200;48.726;8.892;2023-03-21T10:02:37;96782.59;;;27.16;25.41
31595;BME280;18200;48.726;8.892;2023-03-21T10:06:39;96770.75;;;27.75;24.71
31595;BME280;18200;48.726;8.892;2023-03-21T10:10:54;96765.44;;;29.54;22.17
31595;BME280;18200;48.726;8.892;2023-03-21T10:14:58;96771.94;;;28.54;22.78
31595;BME280;18200;48.726;8.892;2023-03-21T10:19:03;96774.81;;;28.83;23.89
31595;BME280;18200;48.726;8.892;2023-03-21T10:23:07;96764.47;;;28.31;23.25
31595;BME280;18200;48.726;8.892;2023-03-21T10:27:11;96764.19;;;28.67;23.28
31595;BME280;18200;48.726;8.892;2023-03-21T10:31:17;96760.72;;;27.03;25.94
31595;BME280;18200;48.726;8.892;2023-03-21T10:35:18;96763.44;;;28.43;24.33
31595;BME280;18200;48.726;8.892;2023-03-21T10:39:34;96762.84;;;28.39;23.71
31595;BME280;18200;48.726;8.892;2023-03-21T10:43:38;96761.22;;;29.58;22.52
31595;BME280;18200;48.726;8.892;2023-03-21T10:47:40;96761.84;;;28.75;23.02
31595;BME280;18200;48.726;8.892;2023-03-21T10:51:41;96768.09;;;26.97;25.77
31595;BME280;18200;48.726;8.892;2023-03-21T10:55:42;96769.13;;;28.25;23.44
31595;BME280;18200;48.726;8.892;2023-03-21T10:59:54;96763.41;;;29.20;22.72
31595;BME280;18200;48.726;8.892;2023-03-21T11:04:00;96760.88;;;28.78;22.93
31595;BME280;18200;48.726;8.892;2023-03-21T11:08:10;96759.66;;;27.84;24.20
31595;BME280;18200;48.726;8.892;2023-03-21T11:12:14;96756.25;;;27.65;24.32
31595;BME280;18200;48.726;8.892;2023-03-21T11:16:44;96757.03;;;28.61;23.25
31595;BME280;18200;48.726;8.892;2023-03-21T11:20:50;96738.66;;;29.45;22.66
31595;BME280;18200;48.726;8.892;2023-03-21T11:24:55;96747.72;;;28.11;23.42
31595;BME280;18200;48.726;8.892;2023-03-21T11:28:57;96742.97;;;29.17;22.49
31595;BME280;18200;48.726;8.892;2023-03-21T11:33:00;96735.97;;;27.92;23.07
31595;BME280;18200;48.726;8.892;2023-03-21T11:37:02;96737.38;;;28.59;23.32
31595;BME280;18200;48.726;8.892;2023-03-21T11:41:04;96737.81;;;29.25;22.55
31595;BME280;18200;48.726;8.892;2023-03-21T11:45:15;96729.81;;;29.61;21.25
31595;BME280;18200;48.726;8.892;2023-03-21T11:49:16;96713.31;;;28.50;22.74
31595;BME280;18200;48.726;8.892;2023-03-21T11:53:28;96715.91;;;27.92;23.57
31595;BME280;18200;48.726;8.892;2023-03-21T11:57:39;96712.59;;;29.08;22.55
31595;BME280;18200;48.726;8.892;2023-03-21T12:01:59;96711.44;;;29.44;22.00
31595;BME280;18200;48.726;8.892;2023-03-21T12:06:02;96712.34;;;29.21;21.71
31595;BME280;18200;48.726;8.892;2023-03-21T12:23:19;96677.88;;;29.91;20.92
31595;BME280;18200;48.726;8.892;2023-03-21T12:32:20;96667.97;;;29.00;21.91
31595;BME280;18200;48.726;8.892;2023-03-21T12:45:05;96647.50;;;30.99;19.31
31595;BME280;18200;48.726;8.892;2023-03-21T12:49:14;96656.50;;;29.07;21.55
31595;BME280;18200;48.726;8.892;2023-03-21T12:57:39;96638.38;;;30.93;19.20
31595;BME280;18200;48.726;8.892;2023-03-21T13:01:41;96642.97;;;31.75;18.02
31595;BME280;18200;48.726;8.892;2023-03-21T13:05:47;96637.81;;;31.52;18.32
31595;BME280;18200;48.726;8.892;2023-03-21T13:09:50;96629.50;;;31.57;18.02
31595;BME280;18200;48.726;8.892;2023-03-21T13:14:00;96632.06;;;31.29;18.14
31595;BME280;18200;48.726;8.892;2023-03-21T13:22:31;96626.69;;;31.15;17.85
31595;BME280;18200;48.726;8.892;2023-03-21T13:26:38;96625.66;;;30.81;19.28
31595;BME280;18200;48.726;8.892;2023-03-21T13:30:39;96626.44;;;31.18;18.64
31595;BME280;18200;48.726;8.892;2023-03-21T13:34:40;96624.88;;;31.43;18.10
31595;BME280;18200;48.726;8.892;2023-03-21T13:38:40;96618.66;;;31.65;18.64
31595;BME280;18200;48.726;8.892;2023-03-21T13:42:44;96608.31;;;31.28;18.63
31595;BME280;18200;48.726;8.892;2023-03-21T13:51:03;96598.22;;;31.62;19.78
31595;BME280;18200;48.726;8.892;2023-03-21T13:55:14;96597.63;;;28.72;20.80
31595;BME280;18200;48.726;8.892;2023-03-21T14:03:35;96575.53;;;31.80;18.24
31595;BME280;18200;48.726;8.892;2023-03-21T14:07:40;96583.53;;;30.83;18.60
31595;BME280;18200;48.726;8.892;2023-03-21T14:11:42;96572.56;;;30.37;20.21
31595;BME280;18200;48.726;8.892;2023-03-21T14:15:46;96569.25;;;31.32;18.86
31595;BME280;18200;48.726;8.892;2023-03-21T14:19:53;96566.94;;;31.25;18.85
31595;BME280;18200;48.726;8.892;2023-03-21T14:24:06;96571.25;;;31.85;18.10
31595;BME280;18200;48.726;8.892;2023-03-21T14:28:15;96574.03;;;30.89;18.48
31595;BME280;18200;48.726;8.892;2023-03-21T14:32:19;96571.84;;;31.41;18.45
31595;BME280;18200;48.726;8.892;2023-03-21T14:36:28;96564.34;;;32.56;17.90
31595;BME280;18200;48.726;8.892;2023-03-21T14:40:29;96572.50;;;30.57;18.71
31595;BME280;18200;48.726;8.892;2023-03-21T14:44:34;96567.59;;;29.00;24.37
31595;BME280;18200;48.726;8.892;2023-03-21T14:48:36;96562.34;;;28.23;26.40
31595;BME280;18200;48.726;8.892;2023-03-21T14:52:36;96559.63;;;27.47;27.75
31595;BME280;18200;48.726;8.892;2023-03-21T14:56:40;96561.03;;;27.10;27.92
31595;BME280;18200;48.726;8.892;2023-03-21T15:00:40;96563.66;;;26.02;28.58
31595;BME280;18200;48.726;8.892;2023-03-21T15:04:43;96562.97;;;26.95;27.66
31595;BME280;18200;48.726;8.892;2023-03-21T15:09:04;96558.91;;;27.37;27.12
31595;BME280;18200;48.726;8.892;2023-03-21T15:13:17;96552.31;;;27.58;27.01
31595;BME280;18200;48.726;8.892;2023-03-21T15:17:19;96551.88;;;26.71;27.77
31595;BME280;18200;48.726;8.892;2023-03-21T15:21:26;96558.63;;;27.03;27.46
31595;BME280;18200;48.726;8.892;2023-03-21T15:25:33;96555.94;;;27.64;27.16
31595;BME280;18200;48.726;8.892;2023-03-21T15:29:34;96557.41;;;27.04;27.60
31595;BME280;18200;48.726;8.892;2023-03-21T15:33:36;96553.28;;;26.15;28.42
31595;BME280;18200;48.726;8.892;2023-03-21T15:37:37;96564.97;;;26.43;28.25
31595;BME280;18200;48.726;8.892;2023-03-21T15:41:37;96565.53;;;25.87;29.71
31595;BME280;18200;48.726;8.892;2023-03-21T15:45:52;96556.63;;;27.03;28.17
31595;BME280;18200;48.726;8.892;2023-03-21T15:49:53;96558.94;;;26.63;28.70
31595;BME280;18200;48.726;8.892;2023-03-21T15:53:55;96560.66;;;27.02;27.60
31595;BME280;18200;48.726;8.892;2023-03-21T15:58:02;96563.13;;;27.47;26.90
31595;BME280;18200;48.726;8.892;2023-03-21T16:02:04;96561.00;;;28.33;26.26
31595;BME280;18200;48.726;8.892;2023-03-21T16:14:27;96562.88;;;26.71;28.57
31595;BME280;18200;48.726;8.892;2023-03-21T16:18:28;96554.06;;;27.00;28.03
31595;BME280;18200;48.726;8.892;2023-03-21T16:22:30;96555.63;;;26.50;28.84
31595;BME280;18200;48.726;8.892;2023-03-21T16:26:36;96556.47;;;27.92;27.26
31595;BME280;18200;48.726;8.892;2023-03-21T16:30:38;96559.84;;;26.78;28.47
31595;BME280;18200;48.726;8.892;2023-03-21T16:34:38;96570.75;;;27.52;28.19
31595;BME280;18200;48.726;8.892;2023-03-21T16:38:40;96568.44;;;27.75;27.42
31595;BME280;18200;48.726;8.892;2023-03-21T16:42:41;96570.25;;;27.30;28.04
31595;BME280;18200;48.726;8.892;2023-03-21T16:46:41;96580.41;;;27.24;27.57
31595;BME280;18200;48.726;8.892;2023-03-21T16:50:45;96579.19;;;27.25;27.85
31595;BME280;18200;48.726;8.892;2023-03-21T16:54:46;96576.56;;;27.93;26.78
31595;BME280;18200;48.726;8.892;2023-03-21T16:58:47;96573.97;;;28.57;26.23
31595;BME280;18200;48.726;8.892;2023-03-21T17:02:51;96577.56;;;28.48;25.58
31595;BME280;18200;48.726;8.892;2023-03-21T17:06:54;96574.34;;;28.35;26.58
31595;BME280;18200;48.726;8.892;2023-03-21T17:10:55;96581.00;;;28.28;26.54
31595;BME280;18200;48.726;8.892;2023-03-21T17:14:55;96575.09;;;28.21;26.40
31595;BME280;18200;48.726;8.892;2023-03-21T17:18:56;96579.28;;;28.89;26.16
31595;BME280;18200;48.726;8.892;2023-03-21T17:22:56;96583.66;;;28.08;26.62
31595;BME280;18200;48.726;8.892;2023-03-21T17:26:58;96582.34;;;28.77;25.77
31595;BME280;18200;48.726;8.892;2023-03-21T17:30:59;96586.09;;;28.59;26.22
31595;BME280;18200;48.726;8.892;2023-03-21T17:34:59;96589.31;;;28.72;26.35
31595;BME280;18200;48.726;8.892;2023-03-21T17:39:00;96595.69;;;28.78;26.45
31595;BME280;18200;48.726;8.892;2023-03-21T17:43:01;96587.44;;;28.98;26.42
31595;BME280;18200;48.726;8.892;2023-03-21T17:47:01;96583.38;;;28.79;26.79
31595;BME280;18200;48.726;8.892;2023-03-21T17:51:02;96584.63;;;28.78;27.00
31595;BME280;18200;48.726;8.892;2023-03-21T17:55:02;96585.00;;;28.71;26.51
31595;BME280;18200;48.726;8.892;2023-03-21T17:59:05;96595.28;;;28.56;26.47
31595;BME280;18200;48.726;8.892;2023-03-21T18:03:06;96604.28;;;28.51;27.47
31595;BME280;18200;48.726;8.892;2023-03-21T18:07:12;96598.06;;;28.56;27.65
31595;BME280;18200;48.726;8.892;2023-03-21T18:11:14;96604.66;;;28.73;27.98
31595;BME280;18200;48.726;8.892;2023-03-21T18:15:16;96592.94;;;28.64;28.67
31595;BME280;18200;48.726;8.892;2023-03-21T18:19:16;96590.66;;;27.95;29.25
31595;BME280;18200;48.726;8.892;2023-03-21T18:23:16;96591.91;;;27.55;30.51
31595;BME280;18200;48.726;8.892;2023-03-21T18:27:18;96581.47;;;27.03;31.33
31595;BME280;18200;48.726;8.892;2023-03-21T18:31:18;96578.56;;;26.56;31.96
31595;BME280;18200;48.726;8.892;2023-03-21T18:35:19;96578.44;;;27.25;31.34
31595;BME280;18200;48.726;8.892;2023-03-21T18:39:20;96582.00;;;27.16;31.30
31595;BME280;18200;48.726;8.892;2023-03-21T18:43:21;96584.84;;;27.54;30.24
31595;BME280;18200;48.726;8.892;2023-03-21T18:47:22;96597.91;;;27.68;30.69
31595;BME280;18200;48.726;8.892;2023-03-21T18:51:22;96612.28;;;27.02;30.73
31595;BME280;18200;48.726;8.892;2023-03-21T18:55:23;96608.91;;;27.54;30.40
31595;BME280;18200;48.726;8.892;2023-03-21T18:59:24;96617.03;;;27.57;30.39
31595;BME280;18200;48.726;8.892;2023-03-21T19:03:25;96601.38;;;26.74;31.71
31595;BME280;18200;48.726;8.892;2023-03-21T19:07:25;96599.72;;;26.41;33.07
31595;BME280;18200;48.726;8.892;2023-03-21T19:11:26;96605.34;;;26.73;32.03
31595;BME280;18200;48.726;8.892;2023-03-21T19:15:26;96599.47;;;27.13;31.82
31595;BME280;18200;48.726;8.892;2023-03-21T19:19:27;96606.72;;;27.11;30.85
31595;BME280;18200;48.726;8.892;2023-03-21T19:23:28;96601.47;;;26.89;31.57
31595;BME280;18200;48.726;8.892;2023-03-21T19:27:29;96600.88;;;26.67;32.19
31595;BME280;18200;48.726;8.892;2023-03-21T19:31:29;96601.53;;;27.04;30.71
31595;BME280;18200;48.726;8.892;2023-03-21T19:35:30;96591.53;;;26.82;31.01
31595;BME280;18200;48.726;8.892;2023-03-21T19:39:30;96607.72;;;26.02;32.64
31595;BME280;18200;48.726;8.892;2023-03-21T19:43:31;96602.06;;;25.52;33.88
31595;BME280;18200;48.726;8.892;2023-03-21T19:47:31;96594.47;;;26.79;31.52
31595;BME280;18200;48.726;8.892;2023-03-21T19:51:31;96585.69;;;26.89;31.47
31595;BME280;18200;48.726;8.892;2023-03-21T19:55:32;96589.25;;;26.81;31.31
31595;BME280;18200;48.726;8.892;2023-03-21T19:59:32;96585.88;;;26.68;32.20
31595;BME280;18200;48.726;8.892;2023-03-21T20:03:33;96582.47;;;26.82;32.29
31595;BME280;18200;48.726;8.892;2023-03-21T20:07:33;96585.13;;;26.67;31.95
31595;BME280;18200;48.726;8.892;2023-03-21T20:11:34;96582.88;;;26.48;32.16
31595;BME280;18200;48.726;8.892;2023-03-21T20:15:35;96578.97;;;25.94;33.35
31595;BME280;18200;48.726;8.892;2023-03-21T20:19:36;96578.41;;;25.72;33.89
31595;BME280;18200;48.726;8.892;2023-03-21T20:23:36;96576.22;;;26.22;33.27
31595;BME280;18200;48.726;8.892;2023-03-21T20:27:39;96593.38;;;25.53;33.44
31595;BME280;18200;48.726;8.892;2023-03-21T20:31:39;96592.78;;;25.09;34.73
31595;BME280;18200;48.726;8.892;2023-03-21T20:35:40;96602.53;;;25.95;33.51
31595;BME280;18200;48.726;8.892;2023-03-21T20:39:41;96598.22;;;26.31;32.66
31595;BME280;18200;48.726;8.892;2023-03-21T20:43:41;96589.06;;;26.34;32.58
31595;BME280;18200;48.726;8.892;2023-03-21T20:47:42;96591.81;;;26.34;32.30
31595;BME280;18200;48.726;8.892;2023-03-21T20:51:42;96610.44;;;26.48;31.86
31595;BME280;18200;48.726;8.892;2023-03-21T20:55:43;96605.88;;;26.45;32.30
31595;BME280;18200;48.726;8.892;2023-03-21T20:59:45;96617.97;;;26.38;32.39
31595;BME280;18200;48.726;8.892;2023-03-21T21:03:46;96611.56;;;25.78;33.17
31595;BME280;18200;48.726;8.892;2023-03-21T21:07:48;96616.91;;;25.90;33.40
31595;BME280;18200;48.726;8.892;2023-03-21T21:11:49;96610.97;;;25.83;33.29
31595;BME280;18200;48.726;8.892;2023-03-21T21:15:50;96606.84;;;25.87;33.40
31595;BME280;18200;48.726;8.892;2023-03-21T21:19:51;96597.34;;;25.70;33.25
31595;BME280;18200;48.726;8.892;2023-03-21T21:23:52;96599.50;;;25.93;33.39
31595;BME280;18200;48.726;8.892;2023-03-21T21:27:52;96599.66;;;26.17;32.05
31595;BME280;18200;48.726;8.892;2023-03-21T21:31:53;96598.09;;;25.71;33.40
31595;BME280;18200;48.726;8.892;2023-03-21T21:35:53;96604.69;;;25.82;33.34
31595;BME280;18200;48.726;8.892;2023-03-21T21:39:55;96604.06;;;25.60;32.67
31595;BME280;18200;48.726;8.892;2023-03-21T21:43:55;96609.91;;;24.74;34.05
31595;BME280;18200;48.726;8.892;2023-03-21T21:47:56;96606.59;;;25.36;32.89
31595;BME280;18200;48.726;8.892;2023-03-21T21:51:56;96601.91;;;25.64;32.11
31595;BME280;18200;48.726;8.892;2023-03-21T21:55:59;96601.00;;;25.94;32.24
31595;BME280;18200;48.726;8.892;2023-03-21T22:00:03;96591.84;;;26.06;31.89
31595;BME280;18200;48.726;8.892;2023-03-21T22:04:12;96598.88;;;25.89;31.96
31595;BME280;18200;48.726;8.892;2023-03-21T22:08:13;96596.44;;;26.09;31.56
31595;BME280;18200;48.726;8.892;2023-03-21T22:12:14;96598.56;;;25.96;32.38
31595;BME280;18200;48.726;8.892;2023-03-21T22:16:14;96594.88;;;25.90;31.47
31595;BME280;18200;48.726;8.892;2023-03-21T22:20:17;96587.25;;;25.67;32.32
31595;BME280;18200;48.726;8.892;2023-03-21T22:24:18;96595.19;;;25.83;32.38
31595;BME280;18200;48.726;8.892;2023-03-21T22:28:18;96603.00;;;25.76;32.60
31595;BME280;18200;48.726;8.892;2023-03-21T22:32:21;96593.47;;;25.31;33.55
31595;BME280;18200;48.726;8.892;2023-03-21T22:36:21;96593.38;;;25.53;32.81
31595;BME280;18200;48.726;8.892;2023-03-21T22:40:22;96590.63;;;25.53;32.69
31595;BME280;18200;48.726;8.892;2023-03-21T22:44:23;96600.94;;;25.31;32.75
31595;BME280;18200;48.726;8.892;2023-03-21T22:48:23;96604.59;;;25.28;33.00